createdAt,value
2019-04-20T00:01:37.121Z,98265.44
2019-04-20T00:04:17.036Z,98262.97
2019-04-20T00:06:49.800Z,98274.41
2019-04-20T00:09:24.652Z,98265.95
2019-04-20T00:12:04.083Z,98280.22
2019-04-20T00:14:36.254Z,98294.47
2019-04-20T00:17:09.507Z,98299.56
2019-04-20T00:19:47.773Z,98324.31
2019-04-20T00:22:23.354Z,98310.28
2019-04-20T00:24:58.070Z,98284.58
2019-04-20T00:27:49.767Z,98277.28
2019-04-20T00:30:25.091Z,98291.97
2019-04-20T00:32:54.676Z,98316.10
2019-04-20T00:35:18.832Z,98321.45
2019-04-20T00:37:53.363Z,98313.73
2019-04-20T00:40:28.548Z,98316.27
2019-04-20T00:43:04.585Z,98322.75
2019-04-20T00:45:46.769Z,98325.50
2019-04-20T00:48:31.541Z,98333.31
2019-04-20T00:51:21.476Z,98338.80
2019-04-20T00:53:40.894Z,98334.88
2019-04-20T00:56:13.960Z,98342.84
2019-04-20T00:59:06.073Z,98339.20
2019-04-20T01:01:47.569Z,98351.70
2019-04-20T01:04:23.926Z,98325.80
2019-04-20T01:06:57.564Z,98326.34
2019-04-20T01:09:26.398Z,98319.77
2019-04-20T01:12:04.047Z,98321.16
2019-04-20T01:14:50.183Z,98322.34
2019-04-20T01:17:24.931Z,98310.17
2019-04-20T01:20:02.800Z,98312.02
2019-04-20T01:22:50.717Z,98309.94
2019-04-20T01:25:27.209Z,98299.95
2019-04-20T01:28:19.304Z,98295.20
2019-04-20T01:30:37.548Z,98292.64
2019-04-20T01:33:21.214Z,98309.50
2019-04-20T01:35:57.121Z,98297.80
2019-04-20T01:38:35.548Z,98276.88
2019-04-20T01:40:59.113Z,98276.09
2019-04-20T01:43:35.229Z,98287.88
2019-04-20T01:46:15.024Z,98275.73
2019-04-20T01:48:48.100Z,98269.50
2019-04-20T01:51:28.577Z,98267.52
2019-04-20T01:54:16.306Z,98266.05
2019-04-20T01:56:47.271Z,98269.69
2019-04-20T01:59:24.155Z,98246.68
2019-04-20T02:01:55.649Z,98237.48
2019-04-20T02:04:31.005Z,98220.04
2019-04-20T02:07:06.400Z,98226.03
2019-04-20T02:09:48.508Z,98225.98
2019-04-20T02:12:23.660Z,98234.73
2019-04-20T02:14:59.022Z,98254.23
2019-04-20T02:17:37.371Z,98243.69
2019-04-20T02:20:22.799Z,98237.96
2019-04-20T02:22:55.606Z,98238.06
2019-04-20T02:25:16.409Z,98243.14
2019-04-20T02:27:56.932Z,98236.16
2019-04-20T02:31:05.777Z,98239.54
2019-04-20T02:33:47.242Z,98242.27
2019-04-20T02:36:21.128Z,98241.13
2019-04-20T02:39:06.650Z,98251.48
2019-04-20T02:41:17.862Z,98255.73
2019-04-20T02:44:06.040Z,98254.72
2019-04-20T02:46:31.601Z,98264.67
2019-04-20T02:49:19.837Z,98233.95
2019-04-20T02:51:47.296Z,98254.03
2019-04-20T02:59:53.561Z,98244.16
2019-04-20T03:01:55.281Z,98228.31
2019-04-20T03:04:26.717Z,98236.83
2019-04-20T03:07:07.901Z,98236.36
2019-04-20T03:09:55.469Z,98226.05
2019-04-20T03:12:33.376Z,98241.95
2019-04-20T03:14:59.714Z,98236.98
2019-04-20T03:17:46.035Z,98233.67
2019-04-20T03:20:22.110Z,98219.50
2019-04-20T03:23:17.668Z,98224.10
2019-04-20T03:25:36.059Z,98223.30
2019-04-20T03:28:21.936Z,98228.94
2019-04-20T03:33:51.463Z,98240.95
2019-04-20T03:36:18.317Z,98238.80
2019-04-20T03:38:52.216Z,98237.30
2019-04-20T03:41:18.506Z,98240.38
2019-04-20T03:43:41.783Z,98234.52
2019-04-20T03:46:30.073Z,98219.70
2019-04-20T03:49:46.979Z,98225.24
2019-04-20T03:52:13.543Z,98215.67
2019-04-20T03:54:43.812Z,98218.11
2019-04-20T03:57:34.441Z,98221.73
2019-04-20T04:00:06.986Z,98205.13
2019-04-20T04:05:24.989Z,98233.10
2019-04-20T04:07:46.741Z,98235.74
2019-04-20T04:10:31.622Z,98207.73
2019-04-20T04:13:16.812Z,98218.03
2019-04-20T04:16:02.335Z,98213.66
2019-04-20T04:18:42.030Z,98230.73
2019-04-20T04:21:20.364Z,98226.72
2019-04-20T04:24:07.432Z,98208.19
2019-04-20T04:26:42.755Z,98207.82
2019-04-20T04:29:28.758Z,98211.05
2019-04-20T04:32:10.482Z,98213.95
2019-04-20T04:34:39.129Z,98213.36
2019-04-20T04:37:24.300Z,98208.51
2019-04-20T04:40:10.561Z,98197.02
2019-04-20T04:42:45.531Z,98211.04
2019-04-20T04:45:01.670Z,98205.42
2019-04-20T04:47:34.550Z,98222.41
2019-04-20T04:50:24.834Z,98222.23
2019-04-20T04:53:09.358Z,98216.83
2019-04-20T04:55:47.740Z,98208.47
2019-04-20T04:58:15.375Z,98210.42
2019-04-20T05:01:01.288Z,98206.98
2019-04-20T05:03:58.271Z,98202.55
2019-04-20T05:06:28.074Z,98203.82
2019-04-20T05:08:56.770Z,98221.36
2019-04-20T05:11:40.640Z,98205.92
2019-04-20T05:14:23.536Z,98199.42
2019-04-20T05:17:25.506Z,98201.98
2019-04-20T05:22:45.750Z,98180.07
2019-04-20T05:25:26.673Z,98184.10
2019-04-20T05:28:04.148Z,98179.23
2019-04-20T05:30:22.394Z,98186.19
2019-04-20T05:33:07.791Z,98184.64
2019-04-20T05:35:55.305Z,98170.61
2019-04-20T05:38:42.055Z,98180.07
2019-04-20T05:41:11.664Z,98177.58
2019-04-20T05:43:47.005Z,98177.98
2019-04-20T05:46:26.706Z,98184.81
2019-04-20T05:49:13.500Z,98186.41
2019-04-20T05:51:44.329Z,98176.73
2019-04-20T05:54:29.720Z,98184.22
2019-04-20T05:57:17.446Z,98190.61
2019-04-20T05:59:53.159Z,98182.27
2019-04-20T06:02:23.247Z,98178.60
2019-04-20T06:05:06.860Z,98195.13
2019-04-20T06:07:35.736Z,98176.25
2019-04-20T06:10:16.787Z,98174.39
2019-04-20T06:12:45.916Z,98174.78
2019-04-20T06:15:15.595Z,98167.06
2019-04-20T06:18:01.016Z,98170.69
2019-04-20T06:20:37.949Z,98166.70
2019-04-20T06:23:19.474Z,98168.70
2019-04-20T06:28:22.027Z,98173.19
2019-04-20T06:30:52.635Z,98167.03
2019-04-20T06:34:30.269Z,98150.98
2019-04-20T06:36:56.048Z,98157.83
2019-04-20T06:42:15.361Z,98149.50
2019-04-20T06:44:41.386Z,98148.45
2019-04-20T06:50:11.115Z,98149.89
2019-04-20T06:52:36.859Z,98148.45
2019-04-20T06:55:14.160Z,98163.52
2019-04-20T06:57:54.814Z,98162.42
2019-04-20T07:00:35.100Z,98159.55
2019-04-20T07:03:18.472Z,98148.91
2019-04-20T07:05:48.962Z,98151.91
2019-04-20T07:08:42.316Z,98145.23
2019-04-20T07:11:05.879Z,98149.06
2019-04-20T07:13:34.124Z,98149.66
2019-04-20T07:16:18.549Z,98153.77
2019-04-20T07:18:56.386Z,98157.98
2019-04-20T07:21:46.386Z,98167.30
2019-04-20T07:24:14.221Z,98166.89
2019-04-20T07:26:44.673Z,98158.37
2019-04-20T07:29:21.013Z,98160.51
2019-04-20T07:31:49.935Z,98167.52
2019-04-20T07:34:29.819Z,98167.89
2019-04-20T07:37:28.141Z,98161.38
2019-04-20T07:39:40.186Z,98161.38
2019-04-20T07:42:23.001Z,98166.77
2019-04-20T07:45:01.820Z,98169.28
2019-04-20T07:47:40.481Z,98164.84
2019-04-20T07:50:05.128Z,98153.00
2019-04-20T07:52:42.237Z,98162.50
2019-04-20T07:57:52.783Z,98164.99
2019-04-20T08:00:41.983Z,98167.67
2019-04-20T08:03:18.359Z,98162.84
2019-04-20T08:05:36.955Z,98174.25
2019-04-20T08:08:18.002Z,98166.06
2019-04-20T08:10:54.426Z,98186.83
2019-04-20T08:13:39.117Z,98191.00
2019-04-20T08:16:21.616Z,98191.98
2019-04-20T08:18:51.404Z,98181.47
2019-04-20T08:21:22.804Z,98187.16
2019-04-20T08:23:55.941Z,98186.98
2019-04-20T08:26:20.236Z,98193.96
2019-04-20T08:28:55.236Z,98192.20
2019-04-20T08:31:39.011Z,98202.78
2019-04-20T08:34:27.909Z,98207.38
2019-04-20T08:36:56.707Z,98202.93
2019-04-20T08:39:45.041Z,98219.66
2019-04-20T08:42:07.468Z,98224.91
2019-04-20T08:44:55.144Z,98232.72
2019-04-20T08:47:48.665Z,98237.78
2019-04-20T08:50:21.353Z,98238.48
2019-04-20T08:55:26.632Z,98263.73
2019-04-20T08:57:44.424Z,98267.64
2019-04-20T09:00:28.779Z,98271.46
2019-04-20T09:03:02.321Z,98285.49
2019-04-20T09:05:43.950Z,98283.67
2019-04-20T09:08:13.486Z,98289.63
2019-04-20T09:10:59.815Z,98282.30
2019-04-20T09:13:28.338Z,98295.59
2019-04-20T09:15:53.455Z,98291.69
2019-04-20T09:18:36.678Z,98283.39
2019-04-20T09:21:09.776Z,98286.95
2019-04-20T09:23:52.221Z,98291.18
2019-04-20T09:26:32.777Z,98293.27
2019-04-20T09:29:07.255Z,98293.92
2019-04-20T09:31:39.530Z,98300.63
2019-04-20T09:36:49.872Z,98302.08
2019-04-20T09:39:27.154Z,98309.51
2019-04-20T09:42:00.701Z,98314.11
2019-04-20T09:44:37.506Z,98323.69
2019-04-20T09:47:10.413Z,98330.27
2019-04-20T09:50:00.804Z,98323.81
2019-04-20T09:52:37.770Z,98333.04
2019-04-20T09:55:14.907Z,98345.38
2019-04-20T09:58:01.258Z,98343.38
2019-04-20T10:00:43.748Z,98351.05
2019-04-20T10:03:00.307Z,98345.47
2019-04-20T10:05:35.686Z,98357.42
2019-04-20T10:08:11.796Z,98363.60
2019-04-20T10:10:47.128Z,98382.41
2019-04-20T10:13:27.567Z,98383.98
2019-04-20T10:16:03.844Z,98393.37
2019-04-20T10:18:44.193Z,98393.27
2019-04-20T10:21:23.593Z,98403.64
2019-04-20T10:24:08.569Z,98398.14
2019-04-20T10:26:46.630Z,98409.51
2019-04-20T10:29:21.620Z,98411.16
2019-04-20T10:31:59.264Z,98416.53
2019-04-20T10:34:32.759Z,98421.63
2019-04-20T10:37:07.196Z,98424.45
2019-04-20T10:39:42.538Z,98420.39
2019-04-20T10:42:16.535Z,98424.41
2019-04-20T10:44:53.215Z,98430.64
2019-04-20T10:47:25.459Z,98438.21
2019-04-20T10:55:43.216Z,98446.65
2019-04-20T10:58:17.711Z,98443.34
2019-04-20T11:00:55.617Z,98449.58
2019-04-20T11:03:30.670Z,98460.23
2019-04-20T11:06:06.822Z,98466.11
2019-04-20T11:08:42.426Z,98461.84
2019-04-20T11:11:22.594Z,98467.01
2019-04-20T11:13:53.092Z,98475.63
2019-04-20T11:16:28.520Z,98480.97
2019-04-20T11:19:03.250Z,98479.20
2019-04-20T11:21:40.708Z,98486.95
2019-04-20T11:24:14.322Z,98496.94
2019-04-20T11:26:48.057Z,98507.34
2019-04-20T11:29:22.275Z,98510.98
2019-04-20T11:31:56.512Z,98516.53
2019-04-20T11:34:33.976Z,98526.52
2019-04-20T11:37:06.876Z,98524.00
2019-04-20T11:39:41.072Z,98541.53
2019-04-20T11:42:15.025Z,98539.58
2019-04-20T11:44:49.268Z,98545.66
2019-04-20T11:47:24.971Z,98552.13
2019-04-20T11:50:19.830Z,98556.34
2019-04-20T11:52:55.301Z,98558.73
2019-04-20T11:55:30.688Z,98561.63
2019-04-20T11:58:06.325Z,98571.07
2019-04-20T12:00:57.328Z,98594.22
2019-04-20T12:03:31.504Z,98594.22
2019-04-20T12:06:03.173Z,98603.81
2019-04-20T12:08:38.861Z,98599.56
2019-04-20T12:11:24.238Z,98605.97
2019-04-20T12:13:48.864Z,98616.25
2019-04-20T12:16:25.601Z,98611.94
2019-04-20T12:19:00.205Z,98621.90
2019-04-20T12:21:34.802Z,98628.53
2019-04-20T12:24:09.984Z,98635.44
2019-04-20T12:26:46.877Z,98641.45
2019-04-20T12:29:24.166Z,98638.77
2019-04-20T12:32:03.495Z,98641.30
2019-04-20T12:34:35.055Z,98646.92
2019-04-20T12:37:13.310Z,98650.84
2019-04-20T12:39:53.212Z,98647.22
2019-04-20T12:42:28.825Z,98654.91
2019-04-20T12:45:03.915Z,98659.98
2019-04-20T12:47:39.522Z,98660.02
2019-04-20T12:50:15.748Z,98662.58
2019-04-20T12:52:54.724Z,98669.30
2019-04-20T12:55:30.797Z,98673.71
2019-04-20T12:58:06.320Z,98671.83
2019-04-20T13:00:54.359Z,98672.94
2019-04-20T13:03:29.763Z,98671.52
2019-04-20T13:06:05.743Z,98675.37
2019-04-20T13:08:45.127Z,98670.66
2019-04-20T13:11:18.660Z,98676.36
2019-04-20T13:14:10.626Z,98678.84
2019-04-20T13:16:47.488Z,98679.65
2019-04-20T13:19:21.443Z,98673.66
2019-04-20T13:21:56.887Z,98674.55
2019-04-20T13:24:32.392Z,98679.09
2019-04-20T13:27:07.056Z,98677.03
2019-04-20T13:29:46.153Z,98674.30
2019-04-20T13:32:21.059Z,98675.58
2019-04-20T13:34:56.273Z,98674.28
2019-04-20T13:37:35.494Z,98669.80
2019-04-20T13:40:09.540Z,98679.40
2019-04-20T13:42:45.576Z,98675.48
2019-04-20T13:45:21.370Z,98677.13
2019-04-20T13:47:58.990Z,98666.31
2019-04-20T13:50:34.017Z,98664.91
2019-04-20T13:53:11.324Z,98664.34
2019-04-20T13:55:45.707Z,98656.66
2019-04-20T13:58:20.140Z,98660.15
2019-04-20T14:00:55.555Z,98656.67
2019-04-20T14:03:30.223Z,98654.69
2019-04-20T14:06:04.733Z,98666.30
2019-04-20T14:08:41.244Z,98668.63
2019-04-20T14:11:15.616Z,98674.36
2019-04-20T14:13:56.731Z,98668.84
2019-04-20T14:16:29.830Z,98676.98
2019-04-20T14:19:05.083Z,98679.23
2019-04-20T14:21:39.623Z,98694.42
2019-04-20T14:24:17.087Z,98688.70
2019-04-20T14:26:51.262Z,98698.52
2019-04-20T14:29:25.257Z,98699.97
2019-04-20T14:32:00.645Z,98701.39
2019-04-20T14:34:35.110Z,98701.39
2019-04-20T14:37:08.852Z,98689.94
2019-04-20T14:39:42.661Z,98689.22
2019-04-20T14:42:35.128Z,98689.62
2019-04-20T14:45:04.747Z,98675.92
2019-04-20T14:47:41.556Z,98670.33
2019-04-20T14:50:18.403Z,98674.98
2019-04-20T14:58:42.169Z,98688.65
2019-04-20T15:01:20.810Z,98699.44
2019-04-20T15:03:59.864Z,98700.84
2019-04-20T15:06:35.828Z,98699.58
2019-04-20T15:09:10.728Z,98698.11
2019-04-20T15:11:46.522Z,98704.62
2019-04-20T15:14:20.799Z,98712.27
2019-04-20T15:16:56.338Z,98713.66
2019-04-20T15:19:31.691Z,98725.90
2019-04-20T15:22:05.830Z,98727.55
2019-04-20T15:24:45.272Z,98728.59
2019-04-20T15:27:18.453Z,98731.06
2019-04-20T15:29:52.114Z,98728.19
2019-04-20T15:32:27.080Z,98728.19
2019-04-20T15:35:01.020Z,98724.44
2019-04-20T15:37:35.561Z,98727.90
2019-04-20T15:40:11.272Z,98734.41
2019-04-20T15:42:55.049Z,98729.73
2019-04-20T15:45:21.239Z,98722.00
2019-04-20T15:47:56.342Z,98717.70
2019-04-20T15:50:30.199Z,98723.05
2019-04-20T15:53:08.074Z,98724.94
2019-04-20T15:55:44.888Z,98717.29
2019-04-20T15:58:18.388Z,98720.57
2019-04-20T16:00:52.804Z,98717.64
2019-04-20T16:03:27.549Z,98721.88
2019-04-20T16:06:03.217Z,98724.95
2019-04-20T16:08:36.899Z,98732.37
2019-04-20T16:11:12.885Z,98730.02
2019-04-20T16:13:50.479Z,98736.81
2019-04-20T16:16:23.651Z,98738.17
2019-04-20T16:19:04.027Z,98754.38
2019-04-20T16:21:39.668Z,98753.51
2019-04-20T16:24:15.009Z,98760.02
2019-04-20T16:26:53.676Z,98759.83
2019-04-20T16:29:33.578Z,98762.56
2019-04-20T16:32:09.079Z,98763.47
2019-04-20T16:34:44.419Z,98766.46
2019-04-20T16:37:28.523Z,98764.98
2019-04-20T16:40:04.292Z,98749.02
2019-04-20T16:42:39.213Z,98746.51
2019-04-20T16:45:13.371Z,98746.70
2019-04-20T16:47:48.103Z,98750.91
2019-04-20T16:50:24.663Z,98753.34
2019-04-20T16:52:59.113Z,98753.78
2019-04-20T16:55:33.025Z,98753.37
2019-04-20T16:58:08.026Z,98747.44
2019-04-20T17:00:43.171Z,98746.95
2019-04-20T17:03:17.318Z,98749.58
2019-04-20T17:05:52.039Z,98749.86
2019-04-20T17:08:26.902Z,98750.13
2019-04-20T17:11:01.497Z,98748.14
2019-04-20T17:13:43.416Z,98755.20
2019-04-20T17:16:11.061Z,98755.05
2019-04-20T17:18:49.782Z,98749.76
2019-04-20T17:21:26.781Z,98745.71
2019-04-20T17:23:59.383Z,98744.63
2019-04-20T17:26:32.873Z,98739.27
2019-04-20T17:29:08.141Z,98741.36
2019-04-20T17:31:42.990Z,98741.11
2019-04-20T17:34:36.141Z,98740.53
2019-04-20T17:36:52.629Z,98743.00
2019-04-20T17:39:35.691Z,98742.53
2019-04-20T17:42:17.160Z,98747.70
2019-04-20T17:44:49.862Z,98750.30
2019-04-20T17:47:31.305Z,98752.89
2019-04-20T17:50:05.290Z,98757.92
2019-04-20T17:52:42.789Z,98756.09
2019-04-20T17:54:57.758Z,98759.24
2019-04-20T17:57:33.211Z,98761.88
2019-04-20T18:00:13.372Z,98756.51
2019-04-20T18:03:06.439Z,98755.75
2019-04-20T18:05:39.515Z,98760.73
2019-04-20T18:08:15.123Z,98754.61
2019-04-20T18:10:41.836Z,98760.17
2019-04-20T18:13:12.070Z,98765.78
2019-04-20T18:15:52.683Z,98763.59
2019-04-20T18:18:32.208Z,98770.62
2019-04-20T18:20:50.542Z,98755.98
2019-04-20T18:23:33.053Z,98755.98
2019-04-20T18:26:24.201Z,98754.71
2019-04-20T18:28:58.672Z,98761.06
2019-04-20T18:31:11.439Z,98754.03
2019-04-20T18:33:46.405Z,98760.56
2019-04-20T18:36:28.445Z,98761.45
2019-04-20T18:38:59.507Z,98763.86
2019-04-20T18:41:38.415Z,98757.88
2019-04-20T18:44:06.402Z,98748.91
2019-04-20T18:47:06.381Z,98742.99
2019-04-20T18:49:33.388Z,98750.10
2019-04-20T18:51:51.579Z,98763.78
2019-04-20T18:54:28.584Z,98763.31
2019-04-20T18:57:01.555Z,98765.61
2019-04-20T18:59:40.887Z,98759.08
2019-04-20T19:02:15.025Z,98765.30
2019-04-20T19:04:44.278Z,98765.45
2019-04-20T19:07:19.634Z,98762.78
2019-04-20T19:10:00.344Z,98759.89
2019-04-20T19:12:34.460Z,98752.59
2019-04-20T19:15:27.985Z,98737.42
2019-04-20T19:17:49.320Z,98731.68
2019-04-20T19:20:15.923Z,98737.48
2019-04-20T19:22:52.330Z,98746.13
2019-04-20T19:25:30.829Z,98749.71
2019-04-20T19:28:02.896Z,98747.75
2019-04-20T19:30:46.080Z,98752.10
2019-04-20T19:33:27.674Z,98747.56
2019-04-20T19:35:54.120Z,98751.94
2019-04-20T19:38:24.523Z,98747.02
2019-04-20T19:41:05.864Z,98754.95
2019-04-20T19:43:41.638Z,98757.33
2019-04-20T19:46:42.015Z,98761.77
2019-04-20T19:48:53.535Z,98765.03
2019-04-20T19:51:35.759Z,98761.47
2019-04-20T19:54:13.165Z,98764.14
2019-04-20T19:56:41.441Z,98768.22
2019-04-20T19:59:13.648Z,98775.60
2019-04-20T20:01:36.001Z,98768.03
2019-04-20T20:04:10.141Z,98765.06
2019-04-20T20:06:51.097Z,98765.63
2019-04-20T20:09:22.214Z,98769.95
2019-04-20T20:12:03.773Z,98763.16
2019-04-20T20:14:36.795Z,98768.34
2019-04-20T20:17:26.891Z,98772.14
2019-04-20T20:20:06.819Z,98772.68
2019-04-20T20:22:28.437Z,98770.80
2019-04-20T20:24:52.861Z,98778.40
2019-04-20T20:27:34.003Z,98781.94
2019-04-20T20:30:11.946Z,98785.17
2019-04-20T20:32:58.851Z,98787.10
2019-04-20T20:35:20.221Z,98788.17
2019-04-20T20:37:53.128Z,98790.09
2019-04-20T20:40:29.948Z,98792.25
2019-04-20T20:43:10.693Z,98799.85
2019-04-20T20:45:43.284Z,98799.85
2019-04-20T20:48:24.438Z,98803.32
2019-04-20T20:51:03.809Z,98822.31
2019-04-20T20:53:36.239Z,98819.09
2019-04-20T20:56:06.336Z,98812.60
2019-04-20T20:58:43.739Z,98812.89
2019-04-20T21:01:14.135Z,98812.81
2019-04-20T21:03:43.992Z,98819.93
2019-04-20T21:06:18.850Z,98816.12
2019-04-20T21:08:53.803Z,98818.86
2019-04-20T21:11:30.523Z,98832.41
2019-04-20T21:14:01.315Z,98835.94
2019-04-20T21:16:40.225Z,98837.56
2019-04-20T21:19:24.572Z,98838.67
2019-04-20T21:21:50.361Z,98831.86
2019-04-20T21:24:21.151Z,98835.42
2019-04-20T21:26:53.899Z,98841.36
2019-04-20T21:29:35.890Z,98842.20
2019-04-20T21:32:08.642Z,98850.06
2019-04-20T21:34:37.385Z,98845.98
2019-04-20T21:37:15.245Z,98849.53
2019-04-20T21:39:53.460Z,98851.70
2019-04-20T21:42:25.177Z,98854.44
2019-04-20T21:45:04.588Z,98866.37
2019-04-20T21:47:36.517Z,98872.07
2019-04-20T21:50:26.699Z,98878.88
2019-04-20T21:52:58.522Z,98890.02
2019-04-20T21:55:27.949Z,98895.73
2019-04-20T21:58:08.616Z,98896.80
2019-04-20T22:00:44.550Z,98901.98
2019-04-20T22:03:18.414Z,98905.48
2019-04-20T22:05:53.009Z,98905.20
2019-04-20T22:08:26.600Z,98912.25
2019-04-20T22:11:01.755Z,98913.59
2019-04-20T22:13:38.829Z,98915.75
2019-04-20T22:16:12.775Z,98920.36
2019-04-20T22:18:50.982Z,98922.49
2019-04-20T22:21:27.796Z,98924.33
2019-04-20T22:24:09.440Z,98924.63
2019-04-20T22:26:39.779Z,98931.16
2019-04-20T22:29:05.940Z,98930.28
2019-04-20T22:31:40.274Z,98936.18
2019-04-20T22:34:20.504Z,98945.98
2019-04-20T22:36:50.566Z,98947.44
2019-04-20T22:39:33.635Z,98948.70
2019-04-20T22:42:05.633Z,98951.46
2019-04-20T22:44:36.093Z,98955.76
2019-04-20T22:47:14.112Z,98960.93
2019-04-20T22:50:00.201Z,98974.52
2019-04-20T22:52:34.870Z,98972.91
2019-04-20T22:55:21.004Z,98974.17
2019-04-20T22:57:48.392Z,98968.91
2019-04-20T23:00:15.599Z,98968.83
2019-04-20T23:02:45.136Z,98964.19
2019-04-20T23:05:20.500Z,98962.47
2019-04-20T23:07:54.725Z,98960.60
2019-04-20T23:10:34.776Z,98959.18
2019-04-20T23:13:05.328Z,98965.31
2019-04-20T23:15:43.303Z,98961.35
2019-04-20T23:18:15.937Z,98964.86
2019-04-20T23:20:56.610Z,98965.49
2019-04-20T23:23:32.537Z,98965.42
2019-04-20T23:26:19.324Z,98970.18
2019-04-20T23:28:55.504Z,98973.79
2019-04-20T23:31:30.773Z,98989.97
2019-04-20T23:34:14.372Z,98991.07
2019-04-20T23:36:50.205Z,98990.05
2019-04-20T23:39:30.119Z,98992.70
2019-04-20T23:42:08.427Z,98989.50
2019-04-20T23:44:47.843Z,98988.80
2019-04-20T23:47:19.844Z,98993.58
2019-04-20T23:50:13.124Z,98997.89
2019-04-20T23:52:53.324Z,99003.63
2019-04-20T23:55:11.945Z,99006.34
2019-04-20T23:57:50.587Z,99010.98
